createdAt,value
2023-05-21T00:00:00.499Z,95.61
2023-05-21T00:01:00.492Z,95.92
2023-05-21T00:02:00.453Z,95.72
2023-05-21T00:03:00.530Z,95.92
2023-05-21T00:04:00.571Z,95.92
2023-05-21T00:05:00.473Z,95.57
2023-05-21T00:06:00.565Z,95.67
2023-05-21T00:07:00.453Z,95.36
2023-05-21T00:08:00.383Z,95.26
2023-05-21T00:09:00.400Z,95.57
2023-05-21T00:10:00.391Z,95.47
2023-05-21T00:11:00.378Z,95.26
2023-05-21T00:12:00.351Z,94.95
2023-05-21T00:13:00.346Z,95.16
2023-05-21T00:14:00.345Z,94.65
2023-05-21T00:15:00.363Z,95.06
2023-05-21T00:16:00.324Z,94.95
2023-05-21T00:17:00.316Z,94.95
2023-05-21T00:18:00.314Z,95.36
2023-05-21T00:19:00.422Z,95.47
2023-05-21T00:20:00.397Z,95.36
2023-05-21T00:21:00.264Z,95.36
2023-05-21T00:22:00.241Z,95.47
2023-05-21T00:23:00.235Z,95.06
2023-05-21T00:24:00.284Z,95.36
2023-05-21T00:25:00.221Z,95.57
2023-05-21T00:26:00.209Z,95.57
2023-05-21T00:27:00.208Z,95.57
2023-05-21T00:28:00.200Z,95.26
2023-05-21T00:29:00.202Z,95.77
2023-05-21T00:30:00.211Z,95.57
2023-05-21T00:31:00.154Z,95.67
2023-05-21T00:32:00.263Z,95.81
2023-05-21T00:33:00.233Z,95.87
2023-05-21T00:34:00.149Z,95.67
2023-05-21T00:35:00.169Z,95.77
2023-05-21T00:36:00.111Z,95.26
2023-05-21T00:37:00.118Z,95.16
2023-05-21T00:38:00.137Z,95.16
2023-05-21T00:39:00.130Z,95.57
2023-05-21T00:40:00.068Z,96.12
2023-05-21T00:41:00.063Z,95.92
2023-05-21T00:42:00.029Z,95.72
2023-05-21T00:43:00.151Z,95.72
2023-05-21T00:44:00.059Z,95.61
2023-05-21T00:45:00.027Z,95.81
2023-05-21T00:46:00.006Z,96.02
2023-05-21T00:47:00.004Z,95.51
2023-05-21T00:48:00.034Z,95.92
2023-05-21T00:48:59.967Z,95.81
2023-05-21T00:49:59.945Z,96.02
2023-05-21T00:50:59.983Z,95.61
2023-05-21T00:51:59.931Z,95.61
2023-05-21T00:52:59.976Z,95.81
2023-05-21T00:53:59.922Z,96.02
2023-05-21T00:54:59.915Z,96.12
2023-05-21T00:55:59.881Z,95.92
2023-05-21T00:56:59.910Z,96.43
2023-05-21T00:57:59.867Z,96.43
2023-05-21T00:58:59.930Z,96.12
2023-05-21T00:59:59.894Z,96.27
2023-05-21T01:00:59.878Z,96.47
2023-05-21T01:01:59.937Z,96.68
2023-05-21T01:02:59.928Z,96.58
2023-05-21T01:03:59.896Z,97.08
2023-05-21T01:04:59.819Z,96.88
2023-05-21T01:05:59.862Z,96.78
2023-05-21T01:06:59.775Z,97.08
2023-05-21T01:07:59.759Z,97.39
2023-05-21T01:08:59.766Z,97.08
2023-05-21T01:09:59.730Z,96.98
2023-05-21T01:10:59.765Z,97.90
2023-05-21T01:11:59.708Z,97.80
2023-05-21T01:12:59.720Z,97.85
2023-05-21T01:13:59.708Z,98.05
2023-05-21T01:14:59.688Z,97.44
2023-05-21T01:15:59.751Z,97.95
2023-05-21T01:16:59.723Z,98.36
2023-05-21T01:17:59.696Z,97.74
2023-05-21T01:18:59.933Z,98.36
2023-05-21T01:19:59.658Z,98.36
2023-05-21T01:20:59.653Z,98.05
2023-05-21T01:21:59.613Z,97.85
2023-05-21T01:22:59.603Z,97.44
2023-05-21T01:23:59.586Z,97.69
2023-05-21T01:24:59.622Z,98.81
2023-05-21T01:25:59.558Z,99.11
2023-05-21T01:26:59.560Z,99.43
2023-05-21T01:27:59.537Z,99.22
2023-05-21T01:28:59.552Z,99.02
2023-05-21T01:29:59.566Z,99.43
2023-05-21T01:30:59.520Z,99.63
2023-05-21T01:31:59.521Z,99.84
2023-05-21T01:32:59.569Z,99.32
2023-05-21T01:33:59.584Z,99.02
2023-05-21T01:34:59.517Z,98.61
2023-05-21T01:35:59.452Z,98.71
2023-05-21T01:36:59.467Z,99.43
2023-05-21T01:37:59.446Z,99.93
2023-05-21T01:38:59.508Z,99.52
2023-05-21T01:39:59.415Z,99.52
2023-05-21T01:40:59.425Z,99.63
2023-05-21T01:41:59.401Z,99.63
2023-05-21T01:42:59.382Z,99.11
2023-05-21T01:43:59.408Z,98.91
2023-05-21T01:44:59.388Z,99.32
2023-05-21T01:45:59.370Z,99.22
2023-05-21T01:46:59.354Z,99.73
2023-05-21T01:47:59.425Z,99.22
2023-05-21T01:48:59.358Z,99.93
2023-05-21T01:49:59.327Z,99.32
2023-05-21T01:50:59.331Z,99.32
2023-05-21T01:51:59.306Z,99.38
2023-05-21T01:52:59.331Z,99.48
2023-05-21T01:53:59.289Z,98.97
2023-05-21T01:54:59.266Z,99.48
2023-05-21T01:55:59.260Z,98.86
2023-05-21T01:56:59.259Z,99.27
2023-05-21T01:58:01.234Z,99.32
2023-05-21T01:58:59.242Z,98.71
2023-05-21T01:59:59.212Z,99.02
2023-05-21T02:00:59.210Z,99.11
2023-05-21T02:01:59.251Z,98.71
2023-05-21T02:02:59.295Z,99.63
2023-05-21T02:03:59.326Z,99.63
2023-05-21T02:04:59.153Z,99.99
2023-05-21T02:05:59.211Z,99.73
2023-05-21T02:06:59.167Z,99.84
2023-05-21T02:07:59.120Z,99.43
2023-05-21T02:08:59.138Z,99.99
2023-05-21T02:09:59.113Z,99.93
2023-05-21T02:10:59.118Z,99.43
2023-05-21T02:11:59.117Z,99.22
2023-05-21T02:12:59.083Z,99.43
2023-05-21T02:13:59.082Z,99.99
2023-05-21T02:14:59.056Z,99.73
2023-05-21T02:15:59.085Z,99.99
2023-05-21T02:16:59.068Z,99.73
2023-05-21T02:17:59.029Z,99.73
2023-05-21T02:18:59.054Z,99.93
2023-05-21T02:19:59.036Z,99.99
2023-05-21T02:20:59.088Z,99.99
2023-05-21T02:21:59.025Z,99.99
2023-05-21T02:22:59.006Z,99.99
2023-05-21T02:23:58.998Z,99.99
2023-05-21T02:24:58.996Z,99.99
2023-05-21T02:25:58.984Z,99.99
2023-05-21T02:26:58.968Z,99.99
2023-05-21T02:27:58.971Z,99.99
2023-05-21T02:28:58.934Z,99.99
2023-05-21T02:29:58.951Z,99.99
2023-05-21T02:30:58.904Z,99.78
2023-05-21T02:31:58.917Z,99.99
2023-05-21T02:32:59.045Z,99.99
2023-05-21T02:33:58.924Z,99.68
2023-05-21T02:34:58.892Z,99.78
2023-05-21T02:35:58.846Z,99.88
2023-05-21T02:36:58.842Z,99.99
2023-05-21T02:37:58.814Z,99.99
2023-05-21T02:38:58.830Z,99.99
2023-05-21T02:39:58.826Z,99.99
2023-05-21T02:40:58.790Z,99.99
2023-05-21T02:41:58.740Z,99.99
2023-05-21T02:42:58.729Z,99.99
2023-05-21T02:43:58.730Z,99.99
2023-05-21T02:44:58.727Z,99.99
2023-05-21T02:45:58.779Z,99.99
2023-05-21T02:46:58.704Z,99.99
2023-05-21T02:47:58.728Z,99.99
2023-05-21T02:48:58.681Z,99.99
2023-05-21T02:49:58.647Z,99.99
2023-05-21T02:50:58.636Z,99.99
2023-05-21T02:51:58.632Z,99.99
2023-05-21T02:52:58.637Z,99.99
2023-05-21T02:53:58.639Z,99.99
2023-05-21T02:54:58.631Z,99.99
2023-05-21T02:55:58.575Z,99.99
2023-05-21T02:56:58.574Z,99.99
2023-05-21T02:57:58.583Z,99.99
2023-05-21T02:58:58.593Z,99.99
2023-05-21T02:59:58.540Z,99.99
2023-05-21T03:00:58.624Z,99.99
2023-05-21T03:01:58.510Z,99.99
2023-05-21T03:02:58.569Z,99.99
2023-05-21T03:03:58.522Z,99.99
2023-05-21T03:04:58.533Z,99.99
2023-05-21T03:05:58.489Z,99.99
2023-05-21T03:06:58.467Z,99.99
2023-05-21T03:07:58.487Z,99.99
2023-05-21T03:08:58.487Z,99.99
2023-05-21T03:09:58.431Z,99.99
2023-05-21T03:10:58.423Z,99.99
2023-05-21T03:11:58.453Z,99.99
2023-05-21T03:12:58.454Z,99.99
2023-05-21T03:13:58.392Z,99.99
2023-05-21T03:14:58.409Z,99.99
2023-05-21T03:15:58.358Z,99.99
2023-05-21T03:16:58.460Z,99.99
2023-05-21T03:17:58.419Z,99.99
2023-05-21T03:18:58.380Z,99.99
2023-05-21T03:19:58.359Z,99.99
2023-05-21T03:20:58.355Z,99.99
2023-05-21T03:21:58.304Z,99.99
2023-05-21T03:22:58.297Z,99.99
2023-05-21T03:23:58.294Z,99.99
2023-05-21T03:24:58.339Z,99.99
2023-05-21T03:25:58.257Z,99.99
2023-05-21T03:26:58.279Z,99.99
2023-05-21T03:27:58.274Z,99.99
2023-05-21T03:28:58.249Z,99.99
2023-05-21T03:29:58.266Z,99.99
2023-05-21T03:30:58.250Z,99.99
2023-05-21T03:31:58.338Z,99.99
2023-05-21T03:32:58.246Z,99.99
2023-05-21T03:33:58.311Z,99.99
2023-05-21T03:34:58.173Z,99.99
2023-05-21T03:35:58.193Z,99.99
2023-05-21T03:36:58.163Z,99.99
2023-05-21T03:37:58.156Z,99.99
2023-05-21T03:38:58.144Z,99.99
2023-05-21T03:39:58.147Z,99.99
2023-05-21T03:40:58.159Z,99.99
2023-05-21T03:41:58.118Z,99.99
2023-05-21T03:42:58.088Z,99.99
2023-05-21T03:43:58.091Z,99.99
2023-05-21T03:44:58.126Z,99.99
2023-05-21T03:45:58.097Z,99.99
2023-05-21T03:46:58.049Z,99.99
2023-05-21T03:47:58.080Z,99.99
2023-05-21T03:48:58.118Z,99.99
2023-05-21T03:49:58.061Z,99.99
2023-05-21T03:50:58.012Z,99.99
2023-05-21T03:51:58.043Z,99.99
2023-05-21T03:52:58.027Z,99.99
2023-05-21T03:53:58.009Z,99.99
2023-05-21T03:54:57.993Z,99.99
2023-05-21T03:55:57.960Z,99.99
2023-05-21T03:56:57.944Z,99.99
2023-05-21T03:57:57.940Z,99.99
2023-05-21T03:58:57.945Z,99.99
2023-05-21T03:59:57.929Z,99.99
2023-05-21T04:00:57.913Z,99.99
2023-05-21T04:01:57.929Z,99.99
2023-05-21T04:02:57.998Z,99.99
2023-05-21T04:03:58.101Z,99.99
2023-05-21T04:04:57.911Z,99.99
2023-05-21T04:05:57.890Z,99.99
2023-05-21T04:06:57.861Z,99.99
2023-05-21T04:07:57.894Z,99.99
2023-05-21T04:08:57.825Z,99.99
2023-05-21T04:09:57.834Z,99.99
2023-05-21T04:10:57.807Z,99.99
2023-05-21T04:11:57.818Z,99.99
2023-05-21T04:12:57.827Z,99.99
2023-05-21T04:13:57.797Z,99.99
2023-05-21T04:14:57.764Z,99.99
2023-05-21T04:15:57.809Z,99.99
2023-05-21T04:16:57.842Z,99.99
2023-05-21T04:17:57.818Z,99.99
2023-05-21T04:18:57.765Z,99.99
2023-05-21T04:19:57.702Z,99.99
2023-05-21T04:20:57.738Z,99.99
2023-05-21T04:21:57.708Z,99.99
2023-05-21T04:22:57.704Z,99.99
2023-05-21T04:23:57.702Z,99.99
2023-05-21T04:24:57.650Z,99.99
2023-05-21T04:25:57.662Z,99.99
2023-05-21T04:26:57.680Z,99.99
2023-05-21T04:27:57.635Z,99.99
2023-05-21T04:28:57.627Z,99.99
2023-05-21T04:29:57.639Z,99.99
2023-05-21T04:30:57.745Z,99.99
2023-05-21T04:31:57.583Z,99.99
2023-05-21T04:32:57.647Z,99.99
2023-05-21T04:33:57.599Z,99.99
2023-05-21T04:34:57.551Z,99.99
2023-05-21T04:35:57.591Z,99.99
2023-05-21T04:36:57.543Z,99.99
2023-05-21T04:37:57.585Z,99.64
2023-05-21T04:38:57.516Z,99.74
2023-05-21T04:39:57.504Z,99.08
2023-05-21T04:40:57.521Z,99.08
2023-05-21T04:41:57.491Z,98.88
2023-05-21T04:42:57.461Z,98.68
2023-05-21T04:43:57.480Z,99.08
2023-05-21T04:44:57.492Z,98.57
2023-05-21T04:45:57.539Z,98.27
2023-05-21T04:46:57.516Z,98.16
2023-05-21T04:47:57.491Z,98.32
2023-05-21T04:48:57.405Z,98.43
2023-05-21T04:49:57.462Z,98.52
2023-05-21T04:50:57.411Z,98.52
2023-05-21T04:51:57.378Z,98.43
2023-05-21T04:52:57.370Z,98.43
2023-05-21T04:53:57.434Z,98.22
2023-05-21T04:54:57.417Z,97.71
2023-05-21T04:55:57.336Z,97.61
2023-05-21T04:56:57.310Z,97.46
2023-05-21T04:57:57.313Z,97.05
2023-05-21T04:58:57.326Z,96.54
2023-05-21T04:59:57.318Z,96.14
2023-05-21T05:00:57.278Z,96.14
2023-05-21T05:01:57.311Z,95.83
2023-05-21T05:02:57.338Z,95.48
2023-05-21T05:03:57.408Z,95.48
2023-05-21T05:04:57.246Z,95.78
2023-05-21T05:05:57.238Z,95.58
2023-05-21T05:06:57.250Z,96.30
2023-05-21T05:07:57.222Z,96.60
2023-05-21T05:08:57.256Z,96.60
2023-05-21T05:09:57.185Z,95.89
2023-05-21T05:10:57.193Z,95.48
2023-05-21T05:11:57.175Z,95.94
2023-05-21T05:12:57.201Z,95.84
2023-05-21T05:13:57.191Z,95.43
2023-05-21T05:14:57.150Z,95.33
2023-05-21T05:15:57.131Z,95.03
2023-05-21T05:16:57.127Z,94.72
2023-05-21T05:17:57.182Z,94.01
2023-05-21T05:18:57.231Z,93.70
2023-05-21T05:19:57.081Z,93.96
2023-05-21T05:20:57.072Z,94.07
2023-05-21T05:21:57.085Z,93.66
2023-05-21T05:22:57.137Z,93.66
2023-05-21T05:23:57.064Z,93.82
2023-05-21T05:24:57.167Z,93.10
2023-05-21T05:25:57.022Z,92.80
2023-05-21T05:26:57.065Z,92.80
2023-05-21T05:27:57.038Z,93.01
2023-05-21T05:28:57.020Z,92.65
2023-05-21T05:29:57.003Z,93.06
2023-05-21T05:30:57.005Z,92.65
2023-05-21T05:31:56.979Z,92.76
2023-05-21T05:32:56.977Z,92.35
2023-05-21T05:33:56.945Z,92.25
2023-05-21T05:34:56.935Z,92.45
2023-05-21T05:35:56.915Z,91.33
2023-05-21T05:36:56.930Z,91.60
2023-05-21T05:37:56.895Z,91.69
2023-05-21T05:38:56.899Z,91.69
2023-05-21T05:39:56.878Z,91.60
2023-05-21T05:40:56.885Z,91.49
2023-05-21T05:41:56.920Z,91.29
2023-05-21T05:42:56.831Z,90.99
2023-05-21T05:43:56.844Z,90.99
2023-05-21T05:44:56.846Z,90.94
2023-05-21T05:45:57.056Z,89.92
2023-05-21T05:46:56.804Z,89.83
2023-05-21T05:47:56.869Z,90.13
2023-05-21T05:48:56.799Z,89.11
2023-05-21T05:49:56.816Z,89.31
2023-05-21T05:50:56.782Z,88.97
2023-05-21T05:51:56.761Z,89.17
2023-05-21T05:52:56.733Z,89.28
2023-05-21T05:53:56.774Z,89.68
2023-05-21T05:54:56.756Z,88.16
2023-05-21T05:55:56.723Z,88.76
2023-05-21T05:56:56.718Z,88.56
2023-05-21T05:57:56.686Z,88.76
2023-05-21T05:58:56.705Z,88.06
2023-05-21T05:59:56.712Z,88.36
2023-05-21T06:00:56.747Z,89.48
2023-05-21T06:01:56.648Z,88.16
2023-05-21T06:02:56.772Z,88.46
2023-05-21T06:03:56.715Z,88.56
2023-05-21T06:04:56.634Z,88.87
2023-05-21T06:05:56.675Z,89.28
2023-05-21T06:06:56.650Z,89.23
2023-05-21T06:07:56.604Z,88.62
2023-05-21T06:08:56.581Z,88.12
2023-05-21T06:09:56.574Z,88.62
2023-05-21T06:10:56.588Z,88.73
2023-05-21T06:11:56.544Z,87.51
2023-05-21T06:12:56.549Z,87.92
2023-05-21T06:13:56.601Z,87.92
2023-05-21T06:14:56.550Z,88.16
2023-05-21T06:15:56.526Z,88.87
2023-05-21T06:16:56.500Z,88.87
2023-05-21T06:17:56.573Z,89.07
2023-05-21T06:18:56.601Z,89.07
2023-05-21T06:19:56.455Z,88.97
2023-05-21T06:20:56.480Z,89.37
2023-05-21T06:21:56.449Z,88.97
2023-05-21T06:22:56.443Z,89.98
2023-05-21T06:23:56.570Z,90.59
2023-05-21T06:24:56.413Z,89.88
2023-05-21T06:25:56.439Z,89.88
2023-05-21T06:26:56.380Z,89.78
2023-05-21T06:27:56.409Z,89.78
2023-05-21T06:28:56.382Z,90.29
2023-05-21T06:29:56.359Z,90.70
2023-05-21T06:30:56.352Z,90.70
2023-05-21T06:31:56.350Z,90.80
2023-05-21T06:32:56.462Z,90.09
2023-05-21T06:33:56.432Z,89.78
2023-05-21T06:34:56.308Z,89.88
2023-05-21T06:35:56.315Z,89.64
2023-05-21T06:36:56.321Z,89.13
2023-05-21T06:37:56.317Z,89.64
2023-05-21T06:38:56.266Z,89.13
2023-05-21T06:39:56.267Z,88.93
2023-05-21T06:40:56.240Z,88.42
2023-05-21T06:41:56.254Z,89.03
2023-05-21T06:42:56.220Z,88.82
2023-05-21T06:43:56.224Z,87.97
2023-05-21T06:44:56.189Z,88.52
2023-05-21T06:45:56.220Z,88.62
2023-05-21T06:46:56.220Z,88.12
2023-05-21T06:47:56.229Z,88.58
2023-05-21T06:48:56.183Z,88.58
2023-05-21T06:49:56.146Z,87.77
2023-05-21T06:50:56.164Z,88.18
2023-05-21T06:51:56.161Z,87.92
2023-05-21T06:52:56.109Z,88.58
2023-05-21T06:53:56.115Z,87.71
2023-05-21T06:54:56.092Z,88.52
2023-05-21T06:55:56.154Z,88.28
2023-05-21T06:56:56.077Z,88.28
2023-05-21T06:57:56.072Z,88.28
2023-05-21T06:58:56.092Z,88.07
2023-05-21T06:59:56.052Z,88.68
2023-05-21T07:00:56.131Z,88.18
2023-05-21T07:01:56.064Z,87.87
2023-05-21T07:02:56.064Z,88.03
2023-05-21T07:03:56.043Z,87.52
2023-05-21T07:04:56.089Z,87.48
2023-05-21T07:05:56.004Z,86.47
2023-05-21T07:06:55.964Z,85.72
2023-05-21T07:07:55.997Z,86.63
2023-05-21T07:08:55.960Z,85.78
2023-05-21T07:09:55.957Z,84.67
2023-05-21T07:10:55.966Z,84.27
2023-05-21T07:11:55.915Z,84.33
2023-05-21T07:12:55.918Z,83.41
2023-05-21T07:13:55.903Z,83.51
2023-05-21T07:14:58.132Z,84.02
2023-05-21T07:15:55.876Z,83.11
2023-05-21T07:16:55.880Z,84.02
2023-05-21T07:17:55.926Z,83.61
2023-05-21T07:18:55.905Z,83.92
2023-05-21T07:19:55.877Z,83.51
2023-05-21T07:20:55.849Z,83.27
2023-05-21T07:21:55.842Z,82.76
2023-05-21T07:22:55.797Z,82.16
2023-05-21T07:23:55.825Z,81.85
2023-05-21T07:24:55.780Z,81.96
2023-05-21T07:25:56.810Z,81.76
2023-05-21T07:26:55.758Z,82.16
2023-05-21T07:27:55.756Z,83.17
2023-05-21T07:28:55.781Z,82.73
2023-05-21T07:29:55.733Z,82.93
2023-05-21T07:30:55.720Z,81.88
2023-05-21T07:31:55.749Z,82.49
2023-05-21T07:32:55.764Z,81.57
2023-05-21T07:33:55.710Z,82.99
2023-05-21T07:34:55.729Z,82.08
2023-05-21T07:35:55.673Z,81.27
2023-05-21T07:36:55.646Z,80.97
2023-05-21T07:37:55.681Z,80.66
2023-05-21T07:38:55.640Z,79.62
2023-05-21T07:39:55.623Z,80.93
2023-05-21T07:40:55.685Z,81.34
2023-05-21T07:41:55.608Z,80.63
2023-05-21T07:42:55.589Z,81.50
2023-05-21T07:43:55.597Z,81.30
2023-05-21T07:44:55.603Z,81.34
2023-05-21T07:45:55.602Z,81.40
2023-05-21T07:46:55.553Z,80.90
2023-05-21T07:47:55.587Z,78.53
2023-05-21T07:48:55.540Z,78.03
2023-05-21T07:49:55.522Z,78.90
2023-05-21T07:50:55.574Z,77.62
2023-05-21T07:51:55.526Z,79.30
2023-05-21T07:52:55.627Z,77.83
2023-05-21T07:53:55.597Z,78.50
2023-05-21T07:54:55.475Z,78.09
2023-05-21T07:55:55.507Z,78.26
2023-05-21T07:56:55.511Z,76.51
2023-05-21T07:57:55.435Z,76.20
2023-05-21T07:58:55.451Z,75.60
2023-05-21T07:59:55.421Z,76.91
2023-05-21T08:00:55.480Z,76.00
2023-05-21T08:01:55.433Z,76.37
2023-05-21T08:02:55.479Z,76.54
2023-05-21T08:03:55.532Z,74.99
2023-05-21T08:04:55.424Z,73.91
2023-05-21T08:05:55.370Z,72.20
2023-05-21T08:06:55.371Z,70.73
2023-05-21T08:07:55.340Z,72.44
2023-05-21T08:08:55.342Z,72.07
2023-05-21T08:09:55.317Z,72.47
2023-05-21T08:10:55.350Z,74.22
2023-05-21T08:11:55.300Z,75.33
2023-05-21T08:12:55.282Z,77.04
2023-05-21T08:13:55.332Z,73.68
2023-05-21T08:14:55.254Z,73.48
2023-05-21T08:15:55.296Z,72.88
2023-05-21T08:16:55.236Z,73.04
2023-05-21T08:17:55.271Z,73.51
2023-05-21T08:18:55.258Z,71.26
2023-05-21T08:19:55.264Z,72.77
2023-05-21T08:20:55.218Z,71.77
2023-05-21T08:21:55.190Z,71.06
2023-05-21T08:22:55.171Z,71.47
2023-05-21T08:23:55.416Z,69.99
2023-05-21T08:24:56.194Z,71.20
2023-05-21T08:25:55.153Z,71.30
2023-05-21T08:26:55.132Z,72.54
2023-05-21T08:27:55.148Z,74.05
2023-05-21T08:28:55.133Z,74.82
2023-05-21T08:29:55.117Z,74.08
2023-05-21T08:30:55.081Z,71.40
2023-05-21T08:31:55.136Z,72.84
2023-05-21T08:32:55.331Z,74.15
2023-05-21T08:33:55.083Z,73.61
2023-05-21T08:34:55.076Z,72.47
2023-05-21T08:35:55.044Z,70.26
2023-05-21T08:36:55.034Z,70.83
2023-05-21T08:37:55.027Z,72.47
2023-05-21T08:38:55.059Z,67.02
2023-05-21T08:39:55.025Z,69.15
2023-05-21T08:40:55.051Z,67.58
2023-05-21T08:41:54.996Z,68.26
2023-05-21T08:42:55.051Z,68.73
2023-05-21T08:43:55.088Z,66.49
2023-05-21T08:44:54.948Z,64.48
2023-05-21T08:45:55.006Z,65.25
2023-05-21T08:46:54.927Z,65.52
2023-05-21T08:47:54.994Z,65.42
2023-05-21T08:48:55.046Z,64.32
2023-05-21T08:49:54.879Z,63.62
2023-05-21T08:50:54.991Z,65.52
2023-05-21T08:51:54.895Z,65.29
2023-05-21T08:52:54.910Z,64.86
2023-05-21T08:53:54.867Z,63.69
2023-05-21T08:54:54.841Z,63.76
2023-05-21T08:55:54.825Z,62.26
2023-05-21T08:56:54.853Z,61.87
2023-05-21T08:57:54.842Z,62.90
2023-05-21T08:58:54.815Z,62.48
2023-05-21T08:59:54.820Z,58.95
2023-05-21T09:00:54.978Z,61.65
2023-05-21T09:01:54.948Z,58.72
2023-05-21T09:02:54.962Z,59.00
2023-05-21T09:04:01.762Z,57.05
2023-05-21T09:04:54.877Z,58.24
2023-05-21T09:05:54.781Z,58.61
2023-05-21T09:06:54.773Z,55.50
2023-05-21T09:07:54.705Z,57.66
2023-05-21T09:08:54.750Z,56.21
2023-05-21T09:09:54.695Z,56.09
2023-05-21T09:10:54.683Z,53.38
2023-05-21T09:11:54.684Z,55.64
2023-05-21T09:12:54.681Z,51.05
2023-05-21T09:13:54.655Z,53.38
2023-05-21T09:14:54.648Z,53.38
2023-05-21T09:15:54.660Z,53.04
2023-05-21T09:16:54.710Z,52.37
2023-05-21T09:17:55.057Z,54.13
2023-05-21T09:18:54.672Z,57.53
2023-05-21T09:19:54.587Z,58.92
2023-05-21T09:20:54.600Z,58.53
2023-05-21T09:21:54.605Z,58.76
2023-05-21T09:22:54.581Z,59.70
2023-05-21T09:23:54.583Z,55.70
2023-05-21T09:24:54.539Z,58.06
2023-05-21T09:25:54.557Z,55.44
2023-05-21T09:26:54.528Z,56.27
2023-05-21T09:27:54.529Z,55.70
2023-05-21T09:28:54.525Z,56.57
2023-05-21T09:29:54.516Z,56.79
2023-05-21T09:30:54.592Z,56.57
2023-05-21T09:31:54.505Z,55.32
2023-05-21T09:32:54.512Z,55.22
2023-05-21T09:33:54.459Z,55.94
2023-05-21T09:34:54.481Z,54.38
2023-05-21T09:35:54.448Z,55.67
2023-05-21T09:36:54.489Z,54.46
2023-05-21T09:37:54.509Z,55.18
2023-05-21T09:38:54.447Z,54.65
2023-05-21T09:39:54.444Z,54.38
2023-05-21T09:40:54.392Z,56.77
2023-05-21T09:41:54.459Z,56.96
2023-05-21T09:42:54.382Z,56.04
2023-05-21T09:43:54.390Z,55.00
2023-05-21T09:44:54.405Z,53.23
2023-05-21T09:45:54.392Z,55.00
2023-05-21T09:46:54.350Z,54.30
2023-05-21T09:47:54.352Z,52.39
2023-05-21T09:48:54.333Z,53.48
2023-05-21T09:49:54.351Z,54.55
2023-05-21T09:50:54.300Z,52.94
2023-05-21T09:51:54.291Z,53.18
2023-05-21T09:52:54.264Z,49.69
2023-05-21T09:53:54.312Z,50.78
2023-05-21T09:54:54.262Z,50.18
2023-05-21T09:55:54.248Z,50.01
2023-05-21T09:56:54.281Z,51.72
2023-05-21T09:57:54.264Z,52.91
2023-05-21T09:58:54.252Z,51.99
2023-05-21T09:59:54.211Z,50.68
2023-05-21T10:00:54.199Z,50.66
2023-05-21T10:01:54.223Z,49.89
2023-05-21T10:02:54.285Z,48.39
2023-05-21T10:03:54.199Z,47.50
2023-05-21T10:04:54.237Z,47.99
2023-05-21T10:05:54.145Z,48.19
2023-05-21T10:06:54.161Z,49.27
2023-05-21T10:07:54.163Z,49.62
2023-05-21T10:08:54.132Z,49.32
2023-05-21T10:09:54.186Z,49.94
2023-05-21T10:10:54.091Z,49.84
2023-05-21T10:11:54.112Z,49.05
2023-05-21T10:12:54.089Z,50.81
2023-05-21T10:13:54.081Z,47.00
2023-05-21T10:14:54.049Z,49.18
2023-05-21T10:15:54.072Z,47.45
2023-05-21T10:16:54.223Z,46.72
2023-05-21T10:17:54.199Z,47.31
2023-05-21T10:18:54.067Z,47.16
2023-05-21T10:19:54.010Z,46.13
2023-05-21T10:20:54.002Z,43.38
2023-05-21T10:21:54.010Z,44.54
2023-05-21T10:22:53.975Z,43.16
2023-05-21T10:23:53.983Z,44.52
2023-05-21T10:24:53.966Z,42.43
2023-05-21T10:25:54.105Z,45.05
2023-05-21T10:26:53.997Z,43.70
2023-05-21T10:27:53.920Z,45.71
2023-05-21T10:28:53.939Z,45.41
2023-05-21T10:29:53.919Z,47.41
2023-05-21T10:30:54.064Z,49.18
2023-05-21T10:31:53.942Z,49.10
2023-05-21T10:32:54.040Z,47.88
2023-05-21T10:33:54.735Z,45.51
2023-05-21T10:34:54.027Z,47.82
2023-05-21T10:35:53.945Z,48.22
2023-05-21T10:36:53.859Z,45.61
2023-05-21T10:37:53.841Z,48.66
2023-05-21T10:38:53.845Z,47.19
2023-05-21T10:39:53.853Z,43.93
2023-05-21T10:40:53.845Z,44.89
2023-05-21T10:41:54.425Z,44.34
2023-05-21T10:42:53.797Z,43.50
2023-05-21T10:43:53.854Z,45.67
2023-05-21T10:44:53.822Z,46.47
2023-05-21T10:45:53.810Z,47.80
2023-05-21T10:46:53.758Z,48.39
2023-05-21T10:47:54.490Z,46.42
2023-05-21T10:48:53.784Z,47.43
2023-05-21T10:49:53.775Z,47.99
2023-05-21T10:50:53.791Z,49.08
2023-05-21T10:51:53.698Z,49.77
2023-05-21T10:52:53.698Z,48.68
2023-05-21T10:53:53.772Z,49.87
2023-05-21T10:54:53.719Z,49.57
2023-05-21T10:55:53.668Z,49.27
2023-05-21T10:56:53.690Z,50.16
2023-05-21T10:57:53.674Z,49.10
2023-05-21T10:58:53.715Z,50.59
2023-05-21T10:59:53.651Z,49.64
2023-05-21T11:00:53.698Z,51.47
2023-05-21T11:01:53.617Z,50.81
2023-05-21T11:02:53.653Z,52.81
2023-05-21T11:03:53.689Z,54.52
2023-05-21T11:04:53.603Z,54.20
2023-05-21T11:05:53.642Z,52.07
2023-05-21T11:06:53.615Z,51.07
2023-05-21T11:07:53.604Z,52.07
2023-05-21T11:08:55.351Z,49.29
2023-05-21T11:09:53.544Z,50.73
2023-05-21T11:10:53.579Z,53.50
2023-05-21T11:11:53.515Z,51.70
2023-05-21T11:12:53.538Z,52.09
2023-05-21T11:13:53.546Z,52.59
2023-05-21T11:14:53.502Z,52.96
2023-05-21T11:15:53.489Z,52.39
2023-05-21T11:16:53.535Z,52.56
2023-05-21T11:17:53.544Z,54.08
2023-05-21T11:18:53.519Z,55.59
2023-05-21T11:19:53.440Z,55.02
2023-05-21T11:20:53.435Z,54.23
2023-05-21T11:21:53.459Z,55.02
2023-05-21T11:22:53.422Z,55.12
2023-05-21T11:23:53.468Z,56.49
2023-05-21T11:24:53.403Z,56.19
2023-05-21T11:25:53.393Z,56.19
2023-05-21T11:26:53.522Z,55.07
2023-05-21T11:27:53.381Z,54.47
2023-05-21T11:28:53.407Z,55.36
2023-05-21T11:29:53.387Z,54.50
2023-05-21T11:30:53.409Z,55.69
2023-05-21T11:31:53.369Z,54.03
2023-05-21T11:32:53.431Z,55.62
2023-05-21T11:33:53.308Z,56.19
2023-05-21T11:34:53.332Z,56.66
2023-05-21T11:35:53.312Z,53.98
2023-05-21T11:36:53.276Z,54.57
2023-05-21T11:37:53.268Z,55.24
2023-05-21T11:38:53.278Z,55.00
2023-05-21T11:39:53.281Z,55.69
2023-05-21T11:40:53.278Z,55.69
2023-05-21T11:41:53.245Z,55.07
2023-05-21T11:42:53.229Z,55.47
2023-05-21T11:43:53.228Z,57.55
2023-05-21T11:44:53.259Z,55.10
2023-05-21T11:45:53.389Z,56.54
2023-05-21T11:46:53.295Z,56.57
2023-05-21T11:47:53.216Z,58.75
2023-05-21T11:48:53.196Z,57.14
2023-05-21T11:49:53.205Z,56.96
2023-05-21T11:50:53.147Z,58.45
2023-05-21T11:51:53.133Z,58.28
2023-05-21T11:52:53.140Z,60.38
2023-05-21T11:53:53.119Z,59.85
2023-05-21T11:54:53.134Z,59.12
2023-05-21T11:55:53.145Z,57.43
2023-05-21T11:56:53.089Z,58.53
2023-05-21T11:57:53.094Z,58.75
2023-05-21T11:58:53.095Z,60.14
2023-05-21T11:59:53.112Z,58.45
2023-05-21T12:00:53.110Z,57.36
2023-05-21T12:01:53.020Z,58.88
2023-05-21T12:02:53.353Z,59.68
2023-05-21T12:03:53.070Z,60.05
2023-05-21T12:04:53.019Z,59.32
2023-05-21T12:05:53.082Z,57.70
2023-05-21T12:06:52.975Z,58.60
2023-05-21T12:07:52.987Z,58.00
2023-05-21T12:08:53.034Z,58.62
2023-05-21T12:09:52.988Z,58.23
2023-05-21T12:10:53.012Z,60.31
2023-05-21T12:11:52.934Z,57.43
2023-05-21T12:12:56.985Z,58.69
2023-05-21T12:13:52.998Z,61.37
2023-05-21T12:14:52.892Z,61.57
2023-05-21T12:15:52.892Z,60.77
2023-05-21T12:16:52.954Z,60.11
2023-05-21T12:17:53.327Z,60.63
2023-05-21T12:18:52.957Z,60.30
2023-05-21T12:19:52.856Z,62.49
2023-05-21T12:20:52.850Z,64.31
2023-05-21T12:21:52.841Z,63.19
2023-05-21T12:22:52.838Z,60.87
2023-05-21T12:23:52.845Z,60.17
2023-05-21T12:24:52.822Z,60.00
2023-05-21T12:25:52.836Z,61.10
2023-05-21T12:26:52.806Z,63.09
2023-05-21T12:27:52.981Z,60.80
2023-05-21T12:28:52.776Z,61.99
2023-05-21T12:29:52.756Z,60.80
2023-05-21T12:30:52.749Z,61.33
2023-05-21T12:31:52.899Z,62.10
2023-05-21T12:32:52.842Z,61.93
2023-05-21T12:33:52.742Z,63.02
2023-05-21T12:34:52.725Z,62.82
2023-05-21T12:35:52.799Z,62.35
2023-05-21T12:36:52.701Z,63.55
2023-05-21T12:37:52.802Z,63.22
2023-05-21T12:38:52.710Z,63.42
2023-05-21T12:39:52.650Z,62.13
2023-05-21T12:40:52.633Z,63.62
2023-05-21T12:41:52.629Z,65.41
2023-05-21T12:42:52.688Z,62.92
2023-05-21T12:43:52.658Z,62.32
2023-05-21T12:44:52.630Z,62.55
2023-05-21T12:45:52.685Z,62.72
2023-05-21T12:47:53.933Z,61.63
2023-05-21T12:48:54.545Z,63.15
2023-05-21T12:49:55.315Z,62.65
2023-05-21T12:50:54.537Z,61.79
2023-05-21T12:51:54.556Z,63.98
2023-05-21T12:52:54.559Z,64.34